Terminal Aerodrome Forecast
Issued by NWS Anchorage, AK

Home | Current Version | Previous Version | Text Only | Print | Product List | Glossary On
Versions: 1 2 3 4 5 6 7 8 9 10 11 12 13 14 15 16 17 18 19 20 21
000
FTAK31 PANC 140537
TAFANC
TAF
PANC 140537Z 1406/1512 16012G22KT P6SM FEW070
     FM140900 17008KT P6SM SCT070
     FM141500 05004KT P6SM FEW045 BKN070
     FM150000 18007KT P6SM VCSH SCT035 OVC060=

USA.gov is the U.S. government's official web portal to all federal, state and local government web resources and services.